This is the latest recevied weather packets stored in our database for station/object N0TKN. If no packets are shown the sender has not sent any weather packets the latest 10 day(s).
| Time | Temp. | Humidity | Pressure | Rain* | Wind** | Luminosity | Snow |
|---|---|---|---|---|---|---|---|
| 1777898118 | 16.11° C | 75% | 1005.4 hPa | 0 mm | - | 162 W/m² | - |
| 1777897518 | 15.56° C | 75% | 1005.5 hPa | 0 mm | - | 165 W/m² | - |
| 1777896918 | 14.44° C | 78% | 1005.6 hPa | 0 mm | - | 122 W/m² | - |
| 1777896318 | 13.89° C | 82% | 1006.1 hPa | 0 mm | - | 71 W/m² | - |
| 1777895716 | 14.44° C | 82% | 1006.3 hPa | 0 mm | - | 45 W/m² | - |
| 1777895116 | 13.89° C | 81% | 1006.3 hPa | 0 mm | - | 31 W/m² | - |
| 1777894515 | 13.89° C | 83% | 1006.3 hPa | 0 mm | - | 21 W/m² | - |
| 1777893916 | 13.89° C | 83% | 1006.4 hPa | 0 mm | - | 12 W/m² | - |
| 1777893316 | 13.89° C | 82% | 1006.4 hPa | 0 mm | - | 5 W/m² | - |
| 1777892716 | 13.89° C | 81% | 1006.5 hPa | 0 mm | - | 2 W/m² | - |
| 1777892117 | 13.89° C | 82% | 1006.5 hPa | 0 mm | - | 0 W/m² | - |
| 1777891516 | 14.44° C | 81% | 1006.6 hPa | 0 mm | - | 0 W/m² | - |
| 1777890917 | 14.44° C | 79% | 1006.5 hPa | 0 mm | - | 0 W/m² | - |
| 1777890317 | 14.44° C | 78% | 1006.6 hPa | 0 mm | - | 0 W/m² | - |
| 1777889717 | 14.44° C | 79% | 1006.9 hPa | 0 mm | - | 0 W/m² | - |
| 1777889117 | 14.44° C | 78% | 1007.2 hPa | 0 mm | - | 0 W/m² | - |
| 1777888517 | 15° C | 77% | 1007.5 hPa | 0 mm | - | 0 W/m² | - |
| 1777887918 | 15.56° C | 73% | 1007.2 hPa | 0 mm | - | 0 W/m² | - |
| 1777887317 | 15.56° C | 73% | 1007 hPa | 0 mm | - | 0 W/m² | - |
| 1777886718 | 15.56° C | 73% | 1006.8 hPa | 0 mm | - | 0 W/m² | - |
| 1777886118 | 16.11° C | 71% | 1006.9 hPa | 0 mm | - | 0 W/m² | - |
| 1777885518 | 16.67° C | 69% | 1006.8 hPa | 0 mm | - | 0 W/m² | - |
| 1777884919 | 16.67° C | 68% | 1006.7 hPa | 0 mm | - | 0 W/m² | - |
| 1777884316 | 16.67° C | 68% | 1006.9 hPa | 0 mm | - | 0 W/m² | - |
| 1777883716 | 16.67° C | 68% | 1006.8 hPa | 0 mm | - | 0 W/m² | - |
* Rain latest hour (hover to see other rain measurements)
** Current wind speed in m/s (hover to see current wind gust speed)